TimeEST,TemperatureF,Dew PointF,Humidity,Sea Level PressureIn,VisibilityMPH,Wind Direction,Wind SpeedMPH,Gust SpeedMPH,PrecipitationIn,Events,Conditions,WindDirDegrees,DateUTC
12:15 AM,26.1,18.9,74,30.40,10.0,Calm,Calm,-,N/A,,Clear,0,2012-12-13 05:15:00
12:35 AM,23.5,19.2,84,30.40,10.0,Calm,Calm,-,N/A,,Clear,0,2012-12-13 05:35:00
12:55 AM,24.3,19.4,82,30.39,10.0,Calm,Calm,-,N/A,,Scattered Clouds,0,2012-12-13 05:55:00
1:15 AM,25.0,19.0,78,30.39,10.0,Calm,Calm,-,N/A,,Clear,0,2012-12-13 06:15:00
1:35 AM,24.4,18.5,78,30.39,10.0,WNW,3.5,-,N/A,,Scattered Clouds,290,2012-12-13 06:35:00
1:55 AM,24.6,19.0,79,30.40,10.0,Calm,Calm,-,N/A,,Scattered Clouds,0,2012-12-13 06:55:00
2:15 AM,23.7,18.9,82,30.39,10.0,Calm,Calm,-,N/A,,Clear,0,2012-12-13 07:15:00
2:35 AM,23.5,18.5,81,30.40,10.0,East,3.5,-,N/A,,Scattered Clouds,90,2012-12-13 07:35:00
2:55 AM,21.9,18.5,87,30.40,10.0,Calm,Calm,-,N/A,,Scattered Clouds,0,2012-12-13 07:55:00
3:15 AM,22.8,18.5,83,30.40,10.0,Calm,Calm,-,N/A,,Scattered Clouds,0,2012-12-13 08:15:00
3:35 AM,23.2,18.5,82,30.40,10.0,West,3.5,-,N/A,,Clear,270,2012-12-13 08:35:00
3:55 AM,23.0,18.9,84,30.40,10.0,WNW,3.5,-,N/A,,Scattered Clouds,290,2012-12-13 08:55:00
4:15 AM,23.0,18.3,82,30.40,10.0,Calm,Calm,-,N/A,,Scattered Clouds,0,2012-12-13 09:15:00
4:35 AM,22.3,17.8,83,30.40,10.0,Calm,Calm,-,N/A,,Scattered Clouds,0,2012-12-13 09:35:00
5:53 AM,19.4,17.6,93,30.41,10.0,Calm,Calm,-,N/A,,Clear,0,2012-12-13 10:53:00
6:53 AM,19.4,17.6,93,30.43,10.0,Calm,Calm,-,N/A,,Clear,0,2012-12-13 11:53:00
7:53 AM,21.2,17.6,86,30.43,10.0,Calm,Calm,-,N/A,,Clear,0,2012-12-13 12:53:00
8:53 AM,24.8,21.2,86,30.44,10.0,Calm,Calm,-,N/A,,Clear,0,2012-12-13 13:53:00
9:53 AM,28.4,23.0,80,30.45,10.0,Calm,Calm,-,N/A,,Clear,0,2012-12-13 14:53:00
10:50 AM,32.0,24.8,75,30.43,10.0,Calm,Calm,-,N/A,,Clear,0,2012-12-13 15:50:00
11:53 AM,35.6,24.8,65,30.42,10.0,Calm,Calm,-,N/A,,Clear,0,2012-12-13 16:53:00
12:53 PM,39.2,19.4,45,30.38,10.0,South,4.6,-,N/A,,Clear,190,2012-12-13 17:53:00
1:53 PM,41.0,17.6,39,30.34,10.0,SSW,5.8,-,N/A,,Clear,210,2012-12-13 18:53:00
2:53 PM,41.0,17.6,39,30.33,10.0,SSW,5.8,-,N/A,,Clear,210,2012-12-13 19:53:00
3:53 PM,39.2,17.6,42,30.33,10.0,SW,5.8,-,N/A,,Clear,220,2012-12-13 20:53:00
4:53 PM,35.6,17.6,48,30.33,10.0,Calm,Calm,-,N/A,,Clear,0,2012-12-13 21:53:00
6:53 PM,32.0,19.4,60,30.32,10.0,Calm,Calm,-,N/A,,Clear,0,2012-12-13 23:53:00
7:53 PM,30.2,19.4,64,30.31,10.0,Calm,Calm,-,N/A,,Clear,0,2012-12-14 00:53:00
8:15 PM,30.0,19.4,65,30.30,10.0,Calm,Calm,-,N/A,,Clear,0,2012-12-14 01:15:00
8:35 PM,30.9,19.4,62,30.30,10.0,Calm,Calm,-,N/A,,Clear,0,2012-12-14 01:35:00
8:55 PM,30.7,19.2,62,30.30,10.0,Calm,Calm,-,N/A,,Clear,0,2012-12-14 01:55:00
9:15 PM,30.4,19.2,63,30.30,10.0,Calm,Calm,-,N/A,,Clear,0,2012-12-14 02:15:00
9:35 PM,29.3,18.9,65,30.30,10.0,Calm,Calm,-,N/A,,Clear,0,2012-12-14 02:35:00
9:55 PM,27.1,19.4,73,30.29,10.0,Calm,Calm,-,N/A,,Clear,0,2012-12-14 02:55:00
10:15 PM,27.5,19.2,71,30.28,10.0,South,3.5,-,N/A,,Clear,190,2012-12-14 03:15:00
10:35 PM,28.6,19.2,68,30.28,10.0,Calm,Calm,-,N/A,,Clear,0,2012-12-14 03:35:00
10:55 PM,30.0,19.0,64,30.28,10.0,Calm,Calm,-,N/A,,Clear,0,2012-12-14 03:55:00
11:15 PM,28.9,19.4,68,30.28,10.0,Calm,Calm,-,N/A,,Clear,0,2012-12-14 04:15:00
11:35 PM,29.1,19.2,67,30.28,10.0,Calm,Calm,-,N/A,,Clear,0,2012-12-14 04:35:00
11:55 PM,27.9,19.2,70,30.28,10.0,SSW,3.5,-,N/A,,Clear,200,2012-12-14 04:55:00